Back to top

Dickinson, ND weather

Theodore Roosevelt Regional Airport, Dickinson, ND: 1/20/2020 04:56
Visibility10 statute milesclear sky
View 7-Day Forecast
Area Summary
Sky/CloudsSky Clear
Weather [last 24 hours]None
Pressure30.37 in.Hg (1029 hPa)
3-hour Pressure Tendency0.02953 in.Hg (1 hPa) Decreasing, then steady, or decreasing then decreasing more slowly
Dew Point-4 °F (-20 °C)
Relative Humidity75.5 %
Temperature1.9 °F (-16.7 °C)blue thermometer
Wind Chill-15.5 °F (-26.4 °C)
Reading TimeMinimum to Maximum Temperature
6-hr ending 1/20@04:56-4 °F to 1.9 °F (-20 °C to -16.7 °C)
6-hr ending 1/19@22:56-5.1 °F to 1 °F (-20.6 °C to -17.2 °C)
6-hr ending 1/19@16:56-2.9 °F to 5 °F (-19.4 °C to -15 °C)
6-hr ending 1/19@10:56-11.9 °F to -2.9 °F (-24.4 °C to -19.4 °C)
24-hr ending 1/19@23:56-11.9 °F to 5 °F (-24.4 °C to -15 °C)
Wind12.7 MPH (11 KT) green arrow pointing 180 degrees
Wind FromSouth (180 Degrees)
Twilight Begins06:53Sunshine Yesterday
Sunrise07:26N/A
Sunset16:39
Twilight Ends17:12
METARKDIK 201156Z AUTO 18011KT 10SM CLR M17/M20 A3037 RMK AO2 SLP351 T11671200 11167 21200 56010
Tags: